Time;durP1;ratioP1;P1;durP2;ratioP2;P2;SDS_P1;SDS_P2;PMS_P1;PMS_P2;Temp;Humidity;BMP_temperature;BMP_pressure;BME280_temperature;BME280_humidity;BME280_pressure;Samples;Min_cycle;Max_cycle;Signal;HPM_P1;HPM_P2
2023/09/10 00:03:07;;;;;;;10.25;5.22;;;;;;;14.02;75.74;101658.38;10409170;28;20054;-71
2023/09/10 00:08:10;;;;;;;9.23;5.60;;;;;;;13.89;76.24;101653.47;10410907;28;20049;-71
2023/09/10 00:13:12;;;;;;;8.38;5.07;;;;;;;13.86;76.91;101654.81;10406926;28;20038;-71
2023/09/10 00:18:15;;;;;;;7.65;4.95;;;;;;;13.86;76.71;101651.22;10392407;28;20056;-71
2023/09/10 00:23:17;;;;;;;9.45;4.72;;;;;;;13.76;77.22;101646.56;10391289;28;20058;-71
2023/09/10 00:28:19;;;;;;;13.40;5.35;;;;;;;13.72;77.63;101639.97;10424709;28;20385;-71
2023/09/10 00:33:22;;;;;;;8.43;4.90;;;;;;;13.72;77.29;101639.97;10408082;28;20038;-71
2023/09/10 00:38:25;;;;;;;11.65;4.93;;;;;;;13.74;77.61;101642.44;10409881;28;20432;-71
2023/09/10 00:43:27;;;;;;;8.30;4.85;;;;;;;13.68;77.60;101638.03;10408347;28;20034;-71
2023/09/10 00:48:32;;;;;;;14.50;5.28;;;;;;;13.63;78.10;101643.56;10418902;28;20049;-71
2023/09/10 00:53:34;;;;;;;9.75;5.13;;;;;;;13.53;78.61;101631.41;10431995;28;20633;-71
2023/09/10 00:58:36;;;;;;;9.57;5.07;;;;;;;13.57;77.97;101634.47;10396387;28;20046;-71
2023/09/10 01:03:38;;;;;;;9.10;5.38;;;;;;;13.53;78.46;101641.63;10381231;28;20053;-71
2023/09/10 01:08:40;;;;;;;12.18;5.22;;;;;;;13.46;78.97;101643.84;10367672;28;20058;-71
2023/09/10 01:13:52;;;;;;;10.25;5.38;;;;;;;13.42;78.95;101632.53;10385100;28;20053;-71
2023/09/10 01:19:04;;;;;;;8.90;5.25;;;;;;;13.34;79.63;101635.81;10408300;28;20428;-71
2023/09/10 01:24:14;;;;;;;8.80;4.95;;;;;;;13.24;79.49;101633.91;10390984;28;20053;-71
2023/09/10 01:29:17;;;;;;;9.02;4.72;;;;;;;13.20;79.53;101631.97;10388053;28;20041;-71
2023/09/10 01:34:23;;;;;;;7.55;4.38;;;;;;;13.19;79.90;101630.31;10406645;28;20049;-71
2023/09/10 01:39:30;;;;;;;5.70;4.10;;;;;;;13.19;79.63;101627.53;10429638;28;20045;-71
2023/09/10 01:44:36;;;;;;;7.43;4.33;;;;;;;13.16;80.46;101626.13;10388306;28;20061;-71
2023/09/10 01:49:39;;;;;;;8.75;5.13;;;;;;;13.05;80.45;101621.75;10430520;28;20531;-71
2023/09/10 01:54:41;;;;;;;8.93;4.70;;;;;;;13.02;80.81;101613.19;10393132;28;20484;-71
2023/09/10 01:59:43;;;;;;;6.80;4.45;;;;;;;12.90;81.07;101608.75;10403889;28;20045;-71
2023/09/10 02:04:45;;;;;;;8.18;4.32;;;;;;;12.94;81.38;101609.88;10392679;28;20056;-71
2023/09/10 02:09:48;;;;;;;5.70;4.68;;;;;;;12.85;81.73;101614.28;10388089;28;20057;-71
2023/09/10 02:14:50;;;;;;;8.20;4.68;;;;;;;12.82;81.47;101603.78;10405845;28;20522;-71
2023/09/10 02:19:52;;;;;;;10.98;4.50;;;;;;;12.75;81.38;101613.41;10387931;28;20062;-71
2023/09/10 02:24:54;;;;;;;9.25;4.43;;;;;;;12.69;82.29;101601.56;10405000;28;20049;-71
2023/09/10 02:29:57;;;;;;;7.22;4.22;;;;;;;12.65;82.39;101603.19;10405303;28;20053;-71
2023/09/10 02:34:59;;;;;;;7.20;4.47;;;;;;;12.55;82.63;101598.50;10405576;28;20519;-71
2023/09/10 02:40:04;;;;;;;12.05;4.00;;;;;;;12.48;83.00;101603.41;10403655;28;20042;-71
2023/09/10 02:45:07;;;;;;;8.88;4.38;;;;;;;12.49;82.56;101595.97;10404352;28;20065;-71
2023/09/10 02:50:09;;;;;;;7.70;4.47;;;;;;;12.45;82.68;101600.38;10351215;28;20038;-71
2023/09/10 02:55:12;;;;;;;9.40;4.80;;;;;;;12.46;82.26;101588.25;10383545;28;20053;-71
2023/09/10 03:00:15;;;;;;;10.75;4.93;;;;;;;12.36;82.96;101578.06;10427090;28;20053;-71
2023/09/10 03:05:17;;;;;;;8.38;4.15;;;;;;;12.34;82.84;101580.25;10398368;28;20065;-71
2023/09/10 03:10:20;;;;;;;9.50;4.40;;;;;;;12.31;83.05;101587.09;10402637;28;20069;-71
2023/09/10 03:15:22;;;;;;;9.50;4.78;;;;;;;12.31;83.54;101583.53;10402888;28;20038;-71
2023/09/10 03:20:25;;;;;;;9.82;4.97;;;;;;;12.33;82.67;101573.94;10403132;28;20046;-71
2023/09/10 03:25:27;;;;;;;7.05;4.40;;;;;;;12.32;83.15;101575.03;10379679;28;20045;-71
2023/09/10 03:30:30;;;;;;;7.28;4.70;;;;;;;12.37;83.83;101572.28;10373726;28;20034;-71
2023/09/10 03:35:32;;;;;;;9.55;4.35;;;;;;;12.55;82.69;101564.63;10393966;28;20508;-71
2023/09/10 03:40:34;;;;;;;8.38;4.70;;;;;;;13.25;80.64;101557.56;10402837;28;20056;-71
2023/09/10 03:45:36;;;;;;;6.20;4.18;;;;;;;13.53;77.79;101562.47;10429445;28;20093;-71
2023/09/10 03:50:39;;;;;;;5.95;3.95;;;;;;;13.88;77.19;101569.00;10443925;28;20049;-71
2023/09/10 03:55:41;;;;;;;7.82;4.13;;;;;;;13.64;76.75;101568.81;10426570;28;20532;-71
2023/09/10 04:00:44;;;;;;;5.55;3.90;;;;;;;14.23;75.83;101567.22;10407267;28;20049;-71
2023/09/10 04:05:46;;;;;;;5.65;3.65;;;;;;;14.06;75.13;101562.06;10384320;28;20511;-71
2023/09/10 04:10:49;;;;;;;6.70;4.10;;;;;;;13.62;76.61;101554.47;10384166;28;20042;-71
2023/09/10 04:15:51;;;;;;;8.23;4.20;;;;;;;13.40;77.09;101554.78;10402126;28;20041;-71
2023/09/10 04:20:53;;;;;;;8.75;3.75;;;;;;;13.38;77.79;101553.41;10406770;28;20041;-71
2023/09/10 04:25:55;;;;;;;8.30;3.97;;;;;;;13.24;78.60;101550.41;10432295;28;20064;-71
2023/09/10 04:30:58;;;;;;;6.40;3.63;;;;;;;13.21;79.16;101546.28;10414187;28;20049;-71
2023/09/10 04:36:01;;;;;;;8.73;4.30;;;;;;;13.22;78.76;101544.34;10422731;28;20037;-71
2023/09/10 04:41:03;;;;;;;8.43;4.03;;;;;;;13.24;78.85;101536.63;10394292;28;20057;-71
2023/09/10 04:46:07;;;;;;;6.05;3.85;;;;;;;13.35;78.90;101534.66;10391664;28;20046;-71
2023/09/10 04:51:09;;;;;;;4.88;3.65;;;;;;;13.48;78.31;101537.66;10392120;28;20054;-71
2023/09/10 04:56:12;;;;;;;6.72;3.72;;;;;;;13.61;78.23;101527.19;10391513;28;20046;-71
2023/09/10 05:01:15;;;;;;;6.00;3.90;;;;;;;13.94;76.73;101521.00;10406168;28;20034;-71
2023/09/10 05:06:19;;;;;;;7.78;3.78;;;;;;;14.05;75.98;101530.88;10390265;28;20038;-72
2023/09/10 05:11:22;;;;;;;5.82;3.67;;;;;;;14.29;75.49;101530.22;10406406;28;20061;-72
2023/09/10 05:16:25;;;;;;;5.82;3.78;;;;;;;14.83;73.37;101513.59;10390319;28;20038;-72
2023/09/10 05:21:28;;;;;;;4.97;3.42;;;;;;;14.99;72.77;101515.13;10408013;28;20488;-72
2023/09/10 05:26:30;;;;;;;5.78;4.05;;;;;;;16.37;67.86;101502.50;10387128;28;20038;-71
2023/09/10 05:31:32;;;;;;;7.80;3.92;;;;;;;15.81;69.37;101511.56;10376524;28;20394;-72
2023/09/10 05:36:35;;;;;;;10.90;4.20;;;;;;;16.76;67.58;101496.69;10379359;28;20058;-71
2023/09/10 05:41:37;;;;;;;4.47;3.13;;;;;;;18.68;61.38;101477.28;10420182;28;20030;-71
2023/09/10 05:46:39;;;;;;;7.28;3.58;;;;;;;19.52;58.19;101473.72;10387901;28;20532;-72
2023/09/10 05:51:42;;;;;;;6.57;3.22;;;;;;;20.12;55.80;101471.13;10333219;28;20050;-72
2023/09/10 05:56:44;;;;;;;4.95;3.13;;;;;;;20.08;55.99;101464.56;10348229;28;20057;-72
2023/09/10 06:01:47;;;;;;;6.00;3.65;;;;;;;21.00;53.94;101461.59;10311609;28;20408;-72
2023/09/10 06:06:49;;;;;;;7.07;3.28;;;;;;;21.83;51.33;101464.78;10362162;28;20038;-72
2023/09/10 06:11:52;;;;;;;4.95;3.25;;;;;;;21.95;51.19;101466.84;10383374;28;20054;-71
2023/09/10 06:16:54;;;;;;;9.13;4.05;;;;;;;22.84;49.12;101456.31;10402179;28;20062;-71
2023/09/10 06:21:56;;;;;;;6.85;3.25;;;;;;;22.99;47.99;101469.66;10364033;28;20050;-71
2023/09/10 06:26:58;;;;;;;8.07;2.83;;;;;;;23.12;47.47;101459.34;10357174;28;20054;-71
2023/09/10 06:32:01;;;;;;;5.07;3.03;;;;;;;22.89;47.72;101463.69;10380215;28;20034;-71
2023/09/10 06:37:05;;;;;;;8.15;2.78;;;;;;;22.77;47.83;101468.06;10346114;28;20050;-71
2023/09/10 06:42:12;;;;;;;5.00;2.38;;;;;;;22.76;47.40;101463.63;10380694;28;20132;-71
2023/09/10 06:47:19;;;;;;;9.80;3.13;;;;;;;23.22;47.20;101455.25;10370762;28;20064;-71
2023/09/10 06:52:21;;;;;;;4.32;3.10;;;;;;;23.66;46.51;101448.81;10418269;28;20547;-71
2023/09/10 06:57:23;;;;;;;7.15;2.78;;;;;;;23.96;44.56;101445.75;10428662;28;20030;-71
2023/09/10 07:02:25;;;;;;;6.15;3.05;;;;;;;23.80;45.78;101442.03;10384490;28;20050;-71
2023/09/10 07:07:28;;;;;;;6.03;2.85;;;;;;;24.04;44.74;101436.38;10392749;28;20512;-71
2023/09/10 07:12:30;;;;;;;3.60;2.30;;;;;;;25.03;42.59;101440.53;10404956;28;20048;-71
2023/09/10 07:17:32;;;;;;;3.90;2.28;;;;;;;25.05;43.01;101433.38;10395358;28;20053;-71
2023/09/10 07:22:34;;;;;;;4.45;2.15;;;;;;;24.80;42.57;101432.63;10374299;28;20061;-71
2023/09/10 07:27:37;;;;;;;4.93;2.42;;;;;;;25.29;42.32;101426.75;10421838;28;20046;-71
2023/09/10 07:32:40;;;;;;;3.83;2.33;;;;;;;25.40;41.83;101421.44;10398323;28;20401;-71
2023/09/10 07:37:42;;;;;;;4.32;1.88;;;;;;;26.19;40.24;101415.66;10402257;28;20409;-71
2023/09/10 07:42:45;;;;;;;3.55;1.95;;;;;;;25.59;41.25;101415.88;10401645;28;20061;-71
2023/09/10 07:47:47;;;;;;;3.25;1.90;;;;;;;26.60;40.10;101412.16;10397437;28;20061;-71
2023/09/10 07:52:49;;;;;;;4.88;2.03;;;;;;;26.73;39.01;101410.00;10399405;28;20049;-70
2023/09/10 07:57:52;;;;;;;4.70;1.70;;;;;;;26.59;39.29;101406.91;10396572;28;20042;-71
2023/09/10 08:02:54;;;;;;;3.60;1.80;;;;;;;27.02;38.83;101405.72;10401286;28;20042;-75
2023/09/10 08:07:58;;;;;;;1.90;1.50;;;;;;;27.88;37.55;101400.31;10370150;28;20421;-74
2023/09/10 08:13:03;;;;;;;4.80;1.58;;;;;;;25.88;39.43;101405.34;10433313;28;20445;-74
2023/09/10 08:18:10;;;;;;;1.50;1.40;;;;;;;27.12;38.44;101393.84;10433938;28;20042;-74
2023/09/10 08:23:12;;;;;;;4.05;1.75;;;;;;;27.01;38.48;101379.56;10389432;28;20034;-74
2023/09/10 08:28:15;;;;;;;2.28;1.40;;;;;;;26.82;39.27;101387.22;10404801;28;20069;-75
2023/09/10 08:33:17;;;;;;;4.10;1.65;;;;;;;26.92;38.59;101384.63;10409963;28;20057;-74
2023/09/10 08:38:19;;;;;;;3.97;2.03;;;;;;;27.52;37.40;101369.94;10402648;28;20038;-74
2023/09/10 08:43:26;;;;;;;1.95;1.30;;;;;;;26.00;38.76;101375.06;10389696;28;20042;-74
2023/09/10 08:48:30;;;;;;;2.05;1.35;;;;;;;26.34;38.36;101370.56;10407415;28;20505;-74
2023/09/10 08:53:34;;;;;;;2.35;1.48;;;;;;;26.87;38.26;101367.19;10401194;28;20064;-73
2023/09/10 08:58:37;;;;;;;1.92;1.25;;;;;;;25.46;39.93;101378.63;10407575;28;20053;-74
2023/09/10 09:03:39;;;;;;;2.92;1.17;;;;;;;24.23;42.17;101376.84;10404920;28;20049;-74
2023/09/10 09:08:48;;;;;;;1.65;1.25;;;;;;;23.08;45.13;101364.03;10405109;28;20054;-74
2023/09/10 09:13:52;;;;;;;1.23;1.02;;;;;;;23.15;45.51;101371.84;10400649;28;20053;-72
2023/09/10 09:18:55;;;;;;;4.03;1.50;;;;;;;23.07;45.93;101362.38;10407820;28;20093;-72
2023/09/10 09:24:01;;;;;;;2.33;1.48;;;;;;;23.05;46.30;101356.31;10381383;28;20512;-72
2023/09/10 09:29:03;;;;;;;1.98;1.58;;;;;;;23.01;46.71;101343.34;10390140;28;20504;-72
2023/09/10 09:34:06;;;;;;;2.30;1.27;;;;;;;22.88;45.85;101344.50;10403444;28;20054;-72
2023/09/10 09:39:08;;;;;;;2.25;1.35;;;;;;;22.17;48.13;101343.56;10402913;28;20140;-72
2023/09/10 09:44:11;;;;;;;2.25;1.70;;;;;;;22.58;47.19;101341.03;10407643;28;20515;-72
2023/09/10 09:49:13;;;;;;;2.60;1.80;;;;;;;22.36;48.03;101345.03;10401094;28;20535;-72
2023/09/10 09:54:15;;;;;;;2.92;1.67;;;;;;;22.47;48.51;101340.66;10368807;28;20073;-73
2023/09/10 09:59:17;;;;;;;2.42;1.60;;;;;;;22.55;48.14;101332.16;10405281;28;20069;-71
2023/09/10 10:04:21;;;;;;;1.63;1.50;;;;;;;22.64;47.96;101339.66;10399109;28;20053;-71
2023/09/10 10:09:23;;;;;;;3.47;2.00;;;;;;;22.68;48.44;101338.59;10386601;28;20054;-73
2023/09/10 10:14:25;;;;;;;2.45;1.48;;;;;;;22.17;48.40;101332.38;10412560;28;20056;-71
2023/09/10 10:19:34;;;;;;;4.00;1.90;;;;;;;22.04;49.73;101322.28;10379655;28;20068;-71
2023/09/10 10:24:36;;;;;;;2.60;1.73;;;;;;;21.92;49.09;101323.03;10396692;28;20050;-71
2023/09/10 10:29:39;;;;;;;3.47;2.00;;;;;;;21.96;49.89;101306.41;10398966;28;20073;-70
2023/09/10 10:34:52;;;;;;;3.80;1.63;;;;;;;22.12;50.10;101309.41;10390064;28;20048;-71
2023/09/10 10:40:08;;;;;;;3.97;1.58;;;;;;;22.10;50.65;101308.94;10382362;28;20051;-70
2023/09/10 10:45:15;;;;;;;4.55;2.30;;;;;;;21.86;51.50;101304.81;10356783;28;20049;-73
2023/09/10 10:50:27;;;;;;;;;;;;;;;21.86;51.53;101299.22;10390144;28;20057;-72
2023/09/10 10:55:29;;;;;;;3.15;1.77;;;;;;;21.71;52.82;101308.25;10380950;28;20319;-73
2023/09/10 11:00:32;;;;;;;3.70;2.00;;;;;;;21.76;53.07;101302.47;10399686;28;20045;-72
2023/09/10 11:05:53;;;;;;;3.60;1.48;;;;;;;21.82;53.12;101295.50;10403853;28;20053;-73
2023/09/10 11:10:56;;;;;;;3.22;1.80;;;;;;;22.27;51.21;101292.81;10400378;28;20053;-72
2023/09/10 11:16:04;;;;;;;4.00;1.50;;;;;;;22.31;50.91;101297.72;10404117;28;20046;-73
2023/09/10 11:21:08;;;;;;;2.47;1.52;;;;;;;22.02;52.04;101274.28;10399892;28;20046;-73
2023/09/10 11:26:13;;;;;;;2.53;1.70;;;;;;;22.20;52.32;101270.19;10408911;28;20049;-72
2023/09/10 11:31:40;;;;;;;1.80;1.48;;;;;;;22.41;51.40;101263.72;10400164;28;20053;-73
2023/09/10 11:36:44;;;;;;;1.90;1.38;;;;;;;22.42;51.53;101257.78;10399930;28;20045;-73
2023/09/10 11:41:50;;;;;;;2.97;1.95;;;;;;;22.65;51.37;101249.78;10392942;28;20058;-75
2023/09/10 11:46:53;;;;;;;2.78;1.80;;;;;;;22.59;51.15;101258.75;10402794;28;20054;-77
2023/09/10 11:51:56;;;;;;;2.15;1.73;;;;;;;22.63;50.93;101243.72;10377919;28;20052;-75
2023/09/10 11:56:58;;;;;;;2.85;1.70;;;;;;;22.42;51.33;101232.63;10405186;28;20054;-79
2023/09/10 12:02:02;;;;;;;3.45;1.80;;;;;;;22.16;53.13;101232.91;10401885;28;20504;-80
2023/09/10 12:07:04;;;;;;;2.10;1.80;;;;;;;22.04;53.18;101224.47;10400432;28;20046;-74
2023/09/10 12:12:12;;;;;;;2.13;1.70;;;;;;;21.93;53.06;101224.06;10393839;28;20425;-73
2023/09/10 12:17:17;;;;;;;2.67;1.80;;;;;;;21.86;53.93;101226.59;10397207;28;20041;-72
2023/09/10 12:22:19;;;;;;;3.13;1.60;;;;;;;22.02;53.84;101228.75;10399279;28;20053;-72
2023/09/10 12:27:21;;;;;;;2.35;1.63;;;;;;;22.10;52.75;101220.31;10400693;28;20049;-71
2023/09/10 12:32:24;;;;;;;3.42;1.77;;;;;;;22.00;54.23;101226.28;10400960;28;20505;-71
2023/09/10 12:37:26;;;;;;;6.25;2.00;;;;;;;22.02;54.04;101220.34;10395561;28;20053;-71
2023/09/10 12:42:29;;;;;;;2.47;1.88;;;;;;;21.91;54.48;101217.19;10403908;28;20046;-71
2023/09/10 12:47:31;;;;;;;3.70;1.70;;;;;;;22.10;54.16;101211.13;10406513;28;20507;-71
2023/09/10 12:52:36;;;;;;;4.38;1.80;;;;;;;21.90;54.89;101215.56;10403664;28;20640;-71
2023/09/10 12:57:39;;;;;;;4.27;1.70;;;;;;;21.75;55.41;101211.44;10381585;28;20041;-71
2023/09/10 13:02:46;;;;;;;4.25;1.80;;;;;;;21.83;54.37;101213.31;10399405;28;20053;-72
2023/09/10 13:07:49;;;;;;;1.95;1.50;;;;;;;21.89;54.80;101208.34;10440240;28;20042;-72
2023/09/10 13:12:51;;;;;;;4.25;1.73;;;;;;;21.93;55.17;101190.53;10402947;28;20042;-72
2023/09/10 13:17:53;;;;;;;5.45;2.00;;;;;;;21.88;55.99;101190.75;10394835;28;20045;-72
2023/09/10 13:22:55;;;;;;;5.10;2.03;;;;;;;21.83;55.72;101204.09;10405893;28;20041;-73
2023/09/10 13:27:57;;;;;;;3.05;2.03;;;;;;;21.89;55.24;101184.00;10401845;28;20065;-72
2023/09/10 13:33:00;;;;;;;6.68;2.33;;;;;;;21.79;55.87;101195.59;10401563;28;20041;-72
2023/09/10 13:38:02;;;;;;;3.05;1.75;;;;;;;21.84;55.45;101188.97;10405514;28;20397;-75
2023/09/10 13:43:05;;;;;;;2.65;1.80;;;;;;;21.69;56.67;101187.63;10401267;28;20052;-75
2023/09/10 13:48:07;;;;;;;3.72;1.75;;;;;;;21.62;55.68;101188.22;10405093;28;20038;-76
2023/09/10 13:53:09;;;;;;;2.72;1.63;;;;;;;21.50;56.55;101184.53;10406412;28;20068;-84
2023/09/10 13:58:11;;;;;;;3.75;2.08;;;;;;;21.46;57.34;101172.41;10371207;28;20042;-76
2023/09/10 14:03:13;;;;;;;5.95;2.25;;;;;;;21.41;57.75;101164.25;10409445;28;20136;-77
2023/09/10 14:08:15;;;;;;;2.85;1.98;;;;;;;21.43;57.51;101161.94;10401200;28;20046;-77
2023/09/10 14:13:17;;;;;;;3.80;1.95;;;;;;;21.41;56.82;101159.50;10402411;28;20042;-78
2023/09/10 14:18:20;;;;;;;3.47;1.73;;;;;;;21.28;57.71;101155.81;10400769;28;20054;-75
2023/09/10 14:23:22;;;;;;;5.53;1.90;;;;;;;21.26;57.91;101155.34;10402789;28;20515;-76
2023/09/10 14:28:24;;;;;;;3.47;1.88;;;;;;;21.29;58.08;101151.03;10404555;28;20049;-76
2023/09/10 14:33:28;;;;;;;5.40;2.40;;;;;;;21.26;58.17;101143.34;10400634;28;20134;-76
2023/09/10 14:38:31;;;;;;;2.67;2.15;;;;;;;21.25;58.12;101145.34;10402198;28;20420;-79
2023/09/10 14:43:33;;;;;;;2.63;2.17;;;;;;;21.19;59.13;101154.22;10402374;28;20041;-78
2023/09/10 14:48:35;;;;;;;5.95;2.40;;;;;;;21.19;58.92;101152.25;10395885;28;20054;-73
2023/09/10 14:53:38;;;;;;;3.25;2.20;;;;;;;21.06;59.72;101142.16;10384354;28;20409;-74
2023/09/10 14:58:40;;;;;;;4.72;2.30;;;;;;;21.01;59.32;101147.97;10400609;28;20033;-76
2023/09/10 15:03:42;;;;;;;2.42;1.95;;;;;;;20.94;60.19;101140.13;10400914;28;20042;-75
2023/09/10 15:08:45;;;;;;;3.38;2.20;;;;;;;20.82;59.93;101142.81;10395754;28;20068;-76
2023/09/10 15:13:47;;;;;;;4.32;2.42;;;;;;;20.72;61.08;101144.03;10402274;28;20034;-77
2023/09/10 15:18:49;;;;;;;4.07;2.30;;;;;;;20.77;60.39;101131.88;10398065;28;20065;-79
2023/09/10 15:23:51;;;;;;;5.07;2.20;;;;;;;20.72;61.12;101123.69;10398205;28;20046;-77
2023/09/10 15:28:53;;;;;;;4.82;2.28;;;;;;;20.62;60.78;101118.50;10402215;28;20071;-77
2023/09/10 15:33:56;;;;;;;3.50;1.95;;;;;;;20.60;60.82;101107.69;10399697;28;20057;-81
2023/09/10 15:38:58;;;;;;;4.70;2.05;;;;;;;20.51;61.37;101120.06;10401600;28;20037;-74
2023/09/10 15:44:01;;;;;;;3.47;2.22;;;;;;;20.50;61.82;101110.88;10400282;28;20072;-74
2023/09/10 15:49:06;;;;;;;4.00;2.53;;;;;;;20.47;62.04;101114.31;10397560;28;20047;-72
2023/09/10 15:54:09;;;;;;;3.63;2.10;;;;;;;20.44;62.30;101112.22;10399450;28;20058;-71
2023/09/10 15:59:11;;;;;;;2.75;1.63;;;;;;;20.37;62.20;101111.91;10400601;28;20057;-71
2023/09/10 16:04:13;;;;;;;4.07;1.65;;;;;;;20.32;62.65;101096.19;10394069;28;20053;-72
2023/09/10 16:09:17;;;;;;;3.20;2.05;;;;;;;20.20;62.41;101104.44;10399998;28;20056;-77
2023/09/10 16:14:19;;;;;;;4.55;2.30;;;;;;;20.14;62.87;101111.34;10385276;28;20158;-78
2023/09/10 16:19:22;;;;;;;3.42;1.92;;;;;;;20.12;62.69;101106.09;10403261;28;20562;-78
2023/09/10 16:24:24;;;;;;;3.55;2.40;;;;;;;20.08;63.32;101107.91;10407058;28;20041;-82
2023/09/10 16:29:26;;;;;;;3.03;2.33;;;;;;;20.08;63.44;101107.91;10401055;28;20045;-88
2023/09/10 16:34:28;;;;;;;3.88;2.42;;;;;;;20.06;62.78;101106.63;10403415;28;20417;-81
2023/09/10 16:39:31;;;;;;;3.55;1.88;;;;;;;20.20;62.72;101098.88;10384052;28;20042;-79
2023/09/10 16:44:33;;;;;;;4.15;2.13;;;;;;;20.20;62.19;101103.63;10405695;28;20041;-81
2023/09/10 16:49:35;;;;;;;3.67;2.15;;;;;;;20.29;62.17;101098.81;10405132;28;20505;-73
2023/09/10 16:54:37;;;;;;;2.80;1.88;;;;;;;20.37;61.71;101103.53;10406586;28;20030;-72
2023/09/10 16:59:40;;;;;;;8.80;3.88;;;;;;;20.32;61.93;101095.38;10408576;28;20038;-72
2023/09/10 17:04:42;;;;;;;2.90;2.28;;;;;;;20.43;62.28;101102.22;10408614;28;20034;-73
2023/09/10 17:09:45;;;;;;;3.40;1.92;;;;;;;20.36;62.01;101099.13;10408748;28;20038;-72
2023/09/10 17:14:50;;;;;;;4.55;2.15;;;;;;;20.21;63.50;101094.94;10407642;28;20057;-73
2023/09/10 17:19:53;;;;;;;3.08;2.28;;;;;;;20.07;63.89;101094.31;10404986;28;20052;-73
2023/09/10 17:24:55;;;;;;;3.65;2.33;;;;;;;19.99;63.83;101096.00;10407558;28;20067;-73
2023/09/10 17:29:57;;;;;;;3.78;2.67;;;;;;;19.84;64.87;101094.59;10389613;28;20555;-73
2023/09/10 17:35:00;;;;;;;8.00;2.40;;;;;;;19.76;65.19;101094.59;10387670;28;20053;-73
2023/09/10 17:40:02;;;;;;;7.40;2.65;;;;;;;19.70;65.53;101098.72;10401832;28;20041;-72
2023/09/10 17:45:05;;;;;;;4.47;2.47;;;;;;;19.77;65.46;101099.81;10422888;28;20045;-72
2023/09/10 17:50:08;;;;;;;5.72;2.38;;;;;;;19.80;65.06;101096.41;10405159;28;20054;-72
2023/09/10 17:55:10;;;;;;;4.88;2.40;;;;;;;19.83;65.77;101100.47;10407153;28;20050;-72
2023/09/10 18:00:12;;;;;;;6.72;2.25;;;;;;;19.87;64.88;101098.66;10405931;28;20045;-73
2023/09/10 18:05:15;;;;;;;3.30;2.00;;;;;;;19.87;64.93;101095.88;10386895;28;20038;-72
2023/09/10 18:10:17;;;;;;;3.08;1.85;;;;;;;19.66;65.76;101089.41;10384922;28;20500;-73
2023/09/10 18:15:19;;;;;;;4.13;2.72;;;;;;;19.60;66.35;101104.63;10403074;28;20034;-73
2023/09/10 18:20:21;;;;;;;2.80;2.15;;;;;;;19.65;66.44;101102.50;10402188;28;20042;-73
2023/09/10 18:25:23;;;;;;;3.05;2.20;;;;;;;19.65;66.79;101108.06;10389142;28;20034;-74
2023/09/10 18:30:28;;;;;;;5.13;2.58;;;;;;;19.70;66.58;101101.50;10395830;28;20505;-73
2023/09/10 18:35:30;;;;;;;4.40;2.22;;;;;;;19.54;66.99;101104.81;10395102;28;20037;-72
2023/09/10 18:40:32;;;;;;;4.10;2.42;;;;;;;19.53;67.13;101110.66;10391283;28;20038;-75
2023/09/10 18:45:34;;;;;;;4.82;2.35;;;;;;;19.58;67.71;101099.38;10401748;28;20038;-78
2023/09/10 18:50:41;;;;;;;4.47;2.78;;;;;;;19.42;68.24;101101.84;10381083;28;20072;-77
2023/09/10 18:55:43;;;;;;;4.05;2.28;;;;;;;19.00;69.90;101099.91;10394390;28;20681;-76
2023/09/10 19:00:46;;;;;;;3.97;2.55;;;;;;;18.91;69.82;101097.09;10396292;28;20508;-75
2023/09/10 19:05:48;;;;;;;5.45;2.08;;;;;;;18.96;70.10;101089.44;10403461;28;20030;-80
2023/09/10 19:10:54;;;;;;;4.78;2.30;;;;;;;18.91;70.07;101081.22;10381359;28;20050;-75
2023/09/10 19:15:56;;;;;;;5.40;2.40;;;;;;;19.09;70.11;101089.56;10393036;28;20057;-78
2023/09/10 19:20:58;;;;;;;3.35;2.10;;;;;;;19.15;69.42;101091.06;10398074;28;20049;-73
2023/09/10 19:26:01;;;;;;;4.07;2.92;;;;;;;19.22;69.34;101089.41;10389583;28;20464;-74
2023/09/10 19:31:13;;;;;;;5.57;2.47;;;;;;;19.32;68.99;101096.63;10397959;28;20049;-71
2023/09/10 19:36:16;;;;;;;5.65;2.80;;;;;;;19.37;69.54;101090.06;10398664;28;20069;-73
2023/09/10 19:41:19;;;;;;;5.55;2.67;;;;;;;19.40;69.20;101093.00;10398822;28;20049;-70
2023/09/10 19:46:21;;;;;;;4.15;2.67;;;;;;;19.41;68.76;101093.81;10398216;28;20050;-75
2023/09/10 19:51:23;;;;;;;6.43;2.83;;;;;;;19.38;69.26;101094.47;10399102;28;20053;-73
2023/09/10 19:56:26;;;;;;;4.85;2.88;;;;;;;19.29;69.70;101086.16;10409706;28;20042;-71
2023/09/10 20:01:29;;;;;;;4.68;2.65;;;;;;;19.39;69.16;101096.13;10398270;28;20042;-79
2023/09/10 20:06:34;;;;;;;3.45;2.53;;;;;;;19.37;69.20;101082.53;10387821;28;20070;-76
2023/09/10 20:11:37;;;;;;;4.03;2.55;;;;;;;19.30;69.75;101086.97;10402877;28;20045;-76
2023/09/10 20:16:39;;;;;;;3.30;2.35;;;;;;;19.07;70.35;101087.13;10405537;28;20038;-78
2023/09/10 20:21:41;;;;;;;3.50;2.25;;;;;;;18.87;71.09;101091.38;10403659;28;20072;-72
2023/09/10 20:26:44;;;;;;;5.00;2.70;;;;;;;18.92;71.16;101098.75;10403863;28;20037;-75
2023/09/10 20:31:47;;;;;;;3.25;2.65;;;;;;;19.04;71.31;101098.09;10411639;28;20056;-72
2023/09/10 20:36:49;;;;;;;5.38;3.33;;;;;;;18.86;71.79;101098.09;10406125;28;20045;-71
2023/09/10 20:41:55;;;;;;;5.88;2.85;;;;;;;18.77;72.50;101096.47;10402629;28;20052;-75
2023/09/10 20:46:57;;;;;;;4.85;3.00;;;;;;;18.80;72.62;101095.81;10401713;28;20050;-75
2023/09/10 20:52:00;;;;;;;5.35;2.95;;;;;;;18.66;72.94;101082.84;10381990;28;20073;-72
2023/09/10 20:57:03;;;;;;;5.00;3.30;;;;;;;18.67;73.38;101094.78;10384320;28;20058;-69
2023/09/10 21:02:05;;;;;;;5.43;3.22;;;;;;;18.64;73.34;101096.25;10401423;28;20068;-71
2023/09/10 21:07:07;;;;;;;5.22;3.42;;;;;;;18.53;73.80;101088.53;10401549;28;20046;-72
2023/09/10 21:12:10;;;;;;;5.03;3.00;;;;;;;18.50;73.71;101084.44;10402342;28;20041;-72
2023/09/10 21:17:14;;;;;;;3.97;2.80;;;;;;;18.57;73.64;101097.84;10405164;28;20054;-73
2023/09/10 21:22:16;;;;;;;3.35;2.55;;;;;;;18.45;74.58;101097.66;10403749;28;20482;-72
2023/09/10 21:27:18;;;;;;;4.68;2.90;;;;;;;18.33;75.25;101093.53;10405035;28;20046;-72
2023/09/10 21:32:20;;;;;;;3.47;2.97;;;;;;;18.39;75.21;101096.97;10404127;28;20037;-72
2023/09/10 21:37:23;;;;;;;4.32;2.90;;;;;;;18.57;74.77;101098.69;10406574;28;20053;-71
2023/09/10 21:42:25;;;;;;;6.18;4.35;;;;;;;18.47;74.78;101101.75;10403776;28;20161;-72
2023/09/10 21:47:28;;;;;;;3.92;2.95;;;;;;;18.57;74.72;101111.72;10387759;28;20033;-72
2023/09/10 21:52:30;;;;;;;4.10;2.80;;;;;;;18.64;74.52;101099.03;10418360;28;20162;-72
2023/09/10 21:57:32;;;;;;;5.07;2.85;;;;;;;18.66;74.58;101104.28;10406254;28;20054;-72
2023/09/10 22:02:35;;;;;;;3.28;2.75;;;;;;;18.83;73.66;101115.44;10405818;28;20042;-72
2023/09/10 22:07:37;;;;;;;2.67;2.47;;;;;;;18.75;73.93;101107.91;10388972;28;20038;-72
2023/09/10 22:12:39;;;;;;;5.07;3.17;;;;;;;18.75;74.37;101107.91;10398131;28;20049;-73
2023/09/10 22:17:42;;;;;;;6.03;3.13;;;;;;;18.73;74.17;101104.59;10403960;28;20053;-72
2023/09/10 22:22:44;;;;;;;4.18;2.75;;;;;;;18.79;74.21;101100.53;10404316;28;20050;-74
2023/09/10 22:27:46;;;;;;;4.32;3.05;;;;;;;18.73;74.54;101095.44;10385786;28;20516;-73
2023/09/10 22:32:49;;;;;;;6.43;3.13;;;;;;;18.71;74.33;101094.97;10403308;28;20389;-73
2023/09/10 22:37:51;;;;;;;4.35;2.70;;;;;;;18.73;74.41;101093.47;10406936;28;20516;-73
2023/09/10 22:42:54;;;;;;;6.45;2.83;;;;;;;18.61;74.63;101088.56;10396802;28;20072;-72
2023/09/10 22:47:56;;;;;;;5.20;3.08;;;;;;;18.51;75.22;101093.59;10404161;28;20041;-73
2023/09/10 22:52:58;;;;;;;5.95;3.33;;;;;;;18.46;75.32;101083.44;10407950;28;20527;-72
2023/09/10 22:58:00;;;;;;;4.82;3.25;;;;;;;18.43;75.56;101084.09;10427180;28;20042;-72
2023/09/10 23:03:02;;;;;;;4.88;3.03;;;;;;;18.40;76.11;101087.53;10400260;28;20058;-73
2023/09/10 23:08:05;;;;;;;4.75;3.20;;;;;;;18.31;76.30;101083.88;10400699;28;20042;-73
2023/09/10 23:13:07;;;;;;;3.70;2.80;;;;;;;18.25;76.38;101074.91;10369085;28;20455;-73